Time;durP1;ratioP1;P1;durP2;ratioP2;P2;SDS_P1;SDS_P2;PMS_P1;PMS_P2;Temp;Humidity;BMP_temperature;BMP_pressure;BME280_temperature;BME280_humidity;BME280_pressure;Samples;Min_cycle;Max_cycle;Signal;HPM_P1;HPM_P2
2022/09/19 00:01:52;;;;;;;4.93;3.78;;;;;;;3.58;100.00;95054.22;5103503;27;20067;-77
2022/09/19 00:04:31;;;;;;;6.07;4.15;;;;;;;3.66;100.00;95055.91;5086645;27;20035;-77
2022/09/19 00:07:00;;;;;;;6.47;3.75;;;;;;;3.67;100.00;95057.50;5084797;28;20151;-77
2022/09/19 00:09:31;;;;;;;8.90;4.10;;;;;;;3.62;100.00;95040.81;5105043;27;20069;-77
2022/09/19 00:11:59;;;;;;;5.63;4.20;;;;;;;3.77;100.00;95058.00;5084869;27;20672;-78
2022/09/19 00:14:29;;;;;;;5.22;3.90;;;;;;;3.71;100.00;95048.41;5069550;28;20040;-77
2022/09/19 00:17:02;;;;;;;4.60;3.95;;;;;;;3.75;100.00;95042.72;5089076;28;20097;-77
2022/09/19 00:19:30;;;;;;;6.97;3.53;;;;;;;3.72;100.00;95030.19;5069413;28;20048;-78
2022/09/19 00:22:00;;;;;;;4.20;3.35;;;;;;;3.71;100.00;95040.69;5068556;28;20791;-77
2022/09/19 00:24:45;;;;;;;5.13;3.88;;;;;;;3.74;100.00;95045.47;5085970;28;20044;-78
2022/09/19 00:27:25;;;;;;;4.72;3.70;;;;;;;3.49;100.00;95020.06;5084046;27;20066;-77
2022/09/19 00:29:53;;;;;;;6.60;3.75;;;;;;;3.50;100.00;95011.38;5069933;28;20508;-77
2022/09/19 00:32:22;;;;;;;4.85;3.97;;;;;;;3.57;100.00;95021.75;5083989;27;20124;-77
2022/09/19 00:34:52;;;;;;;7.22;4.15;;;;;;;3.68;100.00;95034.13;5099275;27;20536;-78
2022/09/19 00:37:20;;;;;;;7.18;4.43;;;;;;;3.71;100.00;95028.63;5079905;27;20086;-77
2022/09/19 00:39:48;;;;;;;4.40;3.38;;;;;;;3.61;100.00;95039.22;5102191;27;20031;-76
2022/09/19 00:42:21;;;;;;;3.83;3.42;;;;;;;3.56;100.00;95036.38;5063446;27;20647;-77
2022/09/19 00:45:00;;;;;;;6.28;4.13;;;;;;;3.64;100.00;95044.00;5105094;27;20035;-78
2022/09/19 00:47:54;;;;;;;7.32;4.45;;;;;;;3.57;100.00;95032.84;5083200;27;20055;-77
2022/09/19 00:50:26;;;;;;;5.27;4.00;;;;;;;3.57;100.00;95027.69;5098661;27;20052;-75
2022/09/19 00:53:09;;;;;;;8.60;4.25;;;;;;;3.61;100.00;95033.25;5085832;27;20121;-74
2022/09/19 00:55:39;;;;;;;10.48;5.10;;;;;;;3.56;100.00;95041.53;5097713;27;20040;-75
2022/09/19 00:58:27;;;;;;;5.68;4.07;;;;;;;3.62;100.00;95048.53;5102975;27;20039;-75
2022/09/19 01:00:56;;;;;;;4.78;3.78;;;;;;;3.56;100.00;95051.81;5074040;28;20074;-75
2022/09/19 01:03:25;;;;;;;4.25;3.20;;;;;;;3.43;100.00;95036.25;5088383;28;20043;-75
2022/09/19 01:06:01;;;;;;;6.20;4.82;;;;;;;3.50;100.00;95047.41;5083960;27;20054;-75
2022/09/19 01:09:01;;;;;;;3.95;3.55;;;;;;;3.38;100.00;95038.56;5102824;27;20066;-75
2022/09/19 01:11:57;;;;;;;3.92;3.53;;;;;;;3.29;100.00;95034.50;5087354;27;20044;-75
2022/09/19 01:14:30;;;;;;;4.32;3.35;;;;;;;3.24;100.00;95033.25;5081011;28;20047;-74
2022/09/19 01:17:11;;;;;;;4.20;3.75;;;;;;;3.13;100.00;95028.56;5103389;27;20040;-75
2022/09/19 01:19:59;;;;;;;5.13;3.58;;;;;;;3.08;100.00;95033.47;5085315;27;20051;-74
2022/09/19 01:22:43;;;;;;;3.97;3.58;;;;;;;2.98;100.00;95038.09;5082614;27;20066;-76
2022/09/19 01:25:45;;;;;;;7.00;4.18;;;;;;;2.82;100.00;95016.69;5084220;27;20047;-75
2022/09/19 01:28:26;;;;;;;4.82;3.80;;;;;;;2.87;100.00;95027.25;5109933;27;20046;-74
2022/09/19 01:31:27;;;;;;;7.03;3.78;;;;;;;2.80;100.00;95026.38;5088748;28;20053;-74
2022/09/19 01:34:05;;;;;;;4.13;3.45;;;;;;;2.62;100.00;95025.91;5072158;28;20047;-74
2022/09/19 01:36:43;;;;;;;7.47;4.13;;;;;;;2.57;100.00;95030.78;5086090;27;20169;-74
2022/09/19 01:39:11;;;;;;;5.45;3.67;;;;;;;2.47;100.00;95016.41;5086192;28;20059;-74
2022/09/19 01:41:53;;;;;;;4.72;3.95;;;;;;;2.59;100.00;95031.41;5096123;27;20114;-74
2022/09/19 01:44:23;;;;;;;5.28;4.30;;;;;;;2.60;100.00;95026.09;5101390;27;20047;-74
2022/09/19 01:47:14;;;;;;;4.00;3.60;;;;;;;2.67;100.00;95016.69;5074373;27;20051;-75
2022/09/19 01:50:12;;;;;;;6.18;4.25;;;;;;;2.69;100.00;95019.09;5093854;27;20052;-75
2022/09/19 01:52:53;;;;;;;4.35;3.25;;;;;;;2.57;100.00;95011.00;5089167;27;20051;-73
2022/09/19 01:55:52;;;;;;;4.15;3.50;;;;;;;2.55;100.00;95007.03;5096222;27;20084;-74
2022/09/19 01:58:23;;;;;;;5.25;4.18;;;;;;;2.56;100.00;95017.13;5082613;28;20622;-77
2022/09/19 02:00:58;;;;;;;6.13;3.72;;;;;;;2.53;100.00;95014.91;5087502;28;20063;-73
2022/09/19 02:03:29;;;;;;;4.50;3.53;;;;;;;2.53;100.00;95011.56;5083293;27;20054;-74
2022/09/19 02:06:00;;;;;;;;;;;;;;;2.49;100.00;95009.31;5076520;28;20046;-75
2022/09/19 02:08:39;;;;;;;4.95;3.85;;;;;;;2.42;100.00;95013.56;5081959;27;19974;-74
2022/09/19 02:11:15;;;;;;;5.07;3.88;;;;;;;2.38;100.00;95009.75;5085656;27;20067;-74
2022/09/19 02:13:51;;;;;;;4.10;3.30;;;;;;;2.25;100.00;94996.69;5103053;27;20185;-75
2022/09/19 02:16:23;;;;;;;4.55;3.65;;;;;;;2.27;100.00;95011.00;5086961;27;20043;-74
2022/09/19 02:18:57;;;;;;;4.45;3.50;;;;;;;2.24;100.00;95015.69;5086992;27;20113;-76
2022/09/19 02:21:48;;;;;;;5.28;3.85;;;;;;;2.22;100.00;95012.50;5073698;28;20143;-78
2022/09/19 02:24:21;;;;;;;7.68;3.60;;;;;;;2.16;100.00;95000.31;5078560;28;20497;-75
2022/09/19 02:26:51;;;;;;;3.95;3.55;;;;;;;2.07;100.00;94979.84;5082309;28;20152;-76
2022/09/19 02:29:24;;;;;;;5.82;4.22;;;;;;;2.22;100.00;94991.94;5085411;28;20071;-75
2022/09/19 02:31:53;;;;;;;6.30;3.78;;;;;;;2.21;100.00;94990.31;5079156;28;20044;-77
2022/09/19 02:34:20;;;;;;;6.15;4.22;;;;;;;2.24;100.00;94989.97;5101393;28;20047;-76
2022/09/19 02:37:04;;;;;;;7.97;4.18;;;;;;;2.30;100.00;94986.69;5079970;28;20039;-75
2022/09/19 02:39:55;;;;;;;;;;;;;;;2.34;100.00;94985.38;5080564;28;20751;-76
2022/09/19 02:42:57;;;;;;;5.35;3.97;;;;;;;2.33;100.00;94981.22;5058392;28;19920;-74
2022/09/19 02:45:40;;;;;;;5.25;3.95;;;;;;;2.31;100.00;94978.03;5077704;28;20107;-75
2022/09/19 02:48:08;;;;;;;7.72;3.92;;;;;;;2.36;100.00;94988.56;5058575;28;20085;-75
2022/09/19 02:50:58;;;;;;;5.85;3.95;;;;;;;2.38;100.00;94986.63;5065050;28;20134;-75
2022/09/19 02:53:33;;;;;;;11.10;4.40;;;;;;;2.41;100.00;94985.47;5082442;28;20571;-76
2022/09/19 02:56:03;;;;;;;5.78;4.88;;;;;;;2.43;100.00;94989.47;5079725;28;20047;-74
2022/09/19 02:58:45;;;;;;;7.10;4.00;;;;;;;2.46;100.00;95004.53;5067694;28;20055;-75
2022/09/19 03:01:21;;;;;;;7.70;4.57;;;;;;;2.42;100.00;94977.59;5077576;28;20070;-74
2022/09/19 03:07:19;;;;;;;6.20;4.75;;;;;;;2.71;100.00;94996.56;5077462;28;20575;-75
2022/09/19 03:10:08;;;;;;;6.15;4.50;;;;;;;2.73;100.00;95004.91;5081085;28;20042;-75
2022/09/19 03:13:00;;;;;;;6.10;4.45;;;;;;;2.67;100.00;94995.34;5079660;28;20027;-76
2022/09/19 03:15:43;;;;;;;5.72;4.47;;;;;;;2.52;100.00;95002.22;5077595;28;20051;-75
2022/09/19 03:18:16;;;;;;;5.78;4.57;;;;;;;2.39;100.00;94993.34;5081026;28;20047;-76
2022/09/19 03:20:49;;;;;;;4.88;3.97;;;;;;;2.24;100.00;94989.97;5112127;27;20088;-75
2022/09/19 03:23:19;;;;;;;5.05;3.88;;;;;;;2.15;100.00;94991.81;5075468;28;20036;-75
2022/09/19 03:25:46;;;;;;;5.50;4.28;;;;;;;2.22;100.00;95000.44;5079373;28;20051;-76
2022/09/19 03:28:19;;;;;;;8.82;4.10;;;;;;;2.20;100.00;94999.00;5086826;28;20055;-75
2022/09/19 03:30:48;;;;;;;6.10;4.18;;;;;;;2.18;100.00;94990.66;5080116;28;20055;-75
2022/09/19 03:33:16;;;;;;;6.00;4.47;;;;;;;2.04;100.00;94985.31;5081030;28;20036;-75
2022/09/19 03:35:44;;;;;;;7.45;4.13;;;;;;;2.05;100.00;94992.06;5081587;27;20048;-75
2022/09/19 03:38:13;;;;;;;4.60;3.88;;;;;;;1.96;100.00;94985.38;5065156;27;20047;-75
2022/09/19 03:40:41;;;;;;;4.88;4.13;;;;;;;1.91;100.00;94990.25;5081447;27;20054;-77
2022/09/19 03:43:08;;;;;;;4.72;4.22;;;;;;;1.83;100.00;94987.75;5103441;27;20035;-75
2022/09/19 03:45:35;;;;;;;5.95;4.63;;;;;;;1.90;100.00;94983.53;5081279;28;20047;-75
2022/09/19 03:48:02;;;;;;;5.50;4.15;;;;;;;2.00;100.00;94994.34;5083577;28;20058;-75
2022/09/19 03:50:29;;;;;;;6.70;4.65;;;;;;;2.03;100.00;94988.84;5081064;28;20048;-75
2022/09/19 03:53:06;;;;;;;5.40;4.57;;;;;;;2.15;100.00;94991.03;5067682;28;20044;-75
2022/09/19 03:55:37;;;;;;;8.65;5.30;;;;;;;2.08;100.00;94971.16;5094965;27;20036;-75
2022/09/19 03:58:10;;;;;;;7.07;4.82;;;;;;;2.10;100.00;94982.03;5084629;27;20050;-75
2022/09/19 04:00:37;;;;;;;6.82;4.00;;;;;;;2.01;100.00;94970.25;5060297;28;20063;-76
2022/09/19 04:03:05;;;;;;;4.80;3.95;;;;;;;2.01;100.00;94975.38;5065800;28;20127;-76
2022/09/19 04:05:33;;;;;;;7.13;4.13;;;;;;;1.99;100.00;94976.53;5079580;28;20046;-75
2022/09/19 04:08:00;;;;;;;6.72;3.72;;;;;;;1.90;100.00;94957.84;5083803;27;20267;-75
2022/09/19 04:10:27;;;;;;;5.60;4.43;;;;;;;1.94;100.00;94979.63;5100201;27;20039;-76
2022/09/19 04:12:56;;;;;;;6.88;4.47;;;;;;;1.90;100.00;94978.38;5066229;27;20040;-75
2022/09/19 04:15:23;;;;;;;6.68;4.53;;;;;;;1.91;100.00;94974.84;5065414;28;20036;-76
2022/09/19 04:17:50;;;;;;;5.75;4.00;;;;;;;1.91;100.00;94980.00;5063336;28;20127;-75
2022/09/19 04:20:18;;;;;;;4.88;4.32;;;;;;;1.84;100.00;94959.31;5065922;27;20047;-76
2022/09/19 04:23:07;;;;;;;6.18;5.32;;;;;;;2.01;100.00;94975.38;5096697;27;21762;-75
2022/09/19 04:26:05;;;;;;;7.18;4.97;;;;;;;1.96;100.00;94969.19;5075185;27;20076;-75
2022/09/19 04:28:39;;;;;;;5.03;4.45;;;;;;;2.05;100.00;94986.94;5082002;27;20581;-74
2022/09/19 04:31:08;;;;;;;12.85;5.93;;;;;;;2.03;100.00;94986.28;5100362;27;20044;-75
2022/09/19 04:33:36;;;;;;;9.13;5.22;;;;;;;2.07;100.00;94985.00;5083112;27;20050;-76
2022/09/19 04:36:05;;;;;;;8.88;5.20;;;;;;;2.08;100.00;94976.28;5064466;28;20611;-75
2022/09/19 04:38:34;;;;;;;10.00;5.28;;;;;;;2.12;100.00;94975.94;5084110;27;20043;-75
2022/09/19 04:41:01;;;;;;;19.27;7.47;;;;;;;2.12;100.00;94981.09;5070726;28;20059;-75
2022/09/19 04:43:32;;;;;;;6.47;5.65;;;;;;;2.12;100.00;94978.53;5080202;28;20051;-75
2022/09/19 04:46:25;;;;;;;8.93;6.68;;;;;;;2.19;100.00;94976.84;5090131;27;20082;-75
2022/09/19 04:48:59;;;;;;;7.50;5.22;;;;;;;2.29;100.00;94982.53;5074646;28;20073;-74
2022/09/19 04:51:31;;;;;;;12.60;6.10;;;;;;;2.36;100.00;94967.19;5060941;27;20050;-75
2022/09/19 04:54:00;;;;;;;8.98;5.40;;;;;;;2.51;100.00;94964.66;5081101;27;20568;-79
2022/09/19 04:56:27;;;;;;;9.13;5.47;;;;;;;2.71;100.00;94975.19;5083628;27;20055;-70
2022/09/19 04:58:54;;;;;;;7.30;5.82;;;;;;;2.82;100.00;94972.97;5075628;28;20588;-71
2022/09/19 05:01:22;;;;;;;11.15;7.10;;;;;;;2.93;100.00;94960.63;5082793;28;20040;-70
2022/09/19 05:03:49;;;;;;;7.25;5.95;;;;;;;3.00;100.00;94951.22;5079499;28;20035;-75
2022/09/19 05:06:17;;;;;;;10.95;6.30;;;;;;;3.28;100.00;94971.09;5068758;27;20706;-78
2022/09/19 05:08:45;;;;;;;9.15;7.47;;;;;;;3.47;100.00;94983.38;5105352;27;20035;-76
2022/09/19 05:11:22;;;;;;;11.77;6.40;;;;;;;3.57;100.00;94976.16;5066236;28;20043;-76
2022/09/19 05:13:52;;;;;;;12.35;6.45;;;;;;;3.84;100.00;94986.72;5067069;28;20901;-76
2022/09/19 05:16:22;;;;;;;9.50;6.70;;;;;;;3.93;100.00;94972.72;5078341;27;20051;-73
2022/09/19 05:18:57;;;;;;;7.75;6.05;;;;;;;4.15;100.00;94977.84;5080915;27;20105;-77
2022/09/19 05:21:26;;;;;;;10.98;5.55;;;;;;;4.19;100.00;94963.59;5076912;27;20051;-69
2022/09/19 05:23:54;;;;;;;9.32;5.72;;;;;;;4.50;100.00;94985.63;5082059;28;20051;-70
2022/09/19 05:26:22;;;;;;;6.60;4.47;;;;;;;4.58;100.00;94967.44;5076334;27;20051;-70
2022/09/19 05:28:53;;;;;;;6.60;4.82;;;;;;;4.71;100.00;94977.81;5067710;28;20040;-70
2022/09/19 05:31:24;;;;;;;28.23;13.63;;;;;;;4.91;100.00;94982.28;5079324;28;21622;-70
2022/09/19 05:34:02;;;;;;;13.68;8.07;;;;;;;4.93;100.00;94959.66;5084174;27;20122;-70
2022/09/19 05:36:32;;;;;;;7.43;4.70;;;;;;;5.27;100.00;94988.97;5059989;27;20046;-70
2022/09/19 05:39:31;;;;;;;5.13;4.53;;;;;;;5.45;100.00;94989.22;5079382;27;20065;-69
2022/09/19 05:42:17;;;;;;;7.35;4.85;;;;;;;5.55;100.00;94984.50;5097848;27;20066;-71
2022/09/19 05:44:44;;;;;;;6.07;4.40;;;;;;;5.73;100.00;94990.91;5082835;28;20075;-70
2022/09/19 05:47:11;;;;;;;9.55;3.83;;;;;;;5.89;100.00;94990.53;5079462;28;20035;-69
2022/09/19 05:49:39;;;;;;;10.55;3.92;;;;;;;5.98;100.00;94987.75;5082918;28;20047;-69
2022/09/19 05:54:52;;;;;;;8.00;4.38;;;;;;;6.22;100.00;94994.94;5087657;27;20530;-69
2022/09/19 05:57:41;;;;;;;9.00;4.45;;;;;;;6.38;100.00;94992.94;5091119;27;20047;-69
2022/09/19 06:00:11;;;;;;;10.45;5.25;;;;;;;6.44;100.00;94992.13;5086022;28;20433;-69
2022/09/19 06:02:40;;;;;;;7.35;3.60;;;;;;;6.51;100.00;94982.56;5106897;27;20120;-69
2022/09/19 06:05:10;;;;;;;7.00;4.30;;;;;;;6.53;100.00;94978.00;5086456;28;20435;-69
2022/09/19 06:07:41;;;;;;;8.23;3.38;;;;;;;6.82;100.00;94988.88;5089017;27;20447;-69
2022/09/19 06:10:08;;;;;;;5.68;3.85;;;;;;;6.92;100.00;94988.47;5080079;28;20593;-69
2022/09/19 06:12:35;;;;;;;5.03;3.30;;;;;;;7.05;100.00;94994.38;5083937;28;20047;-68
2022/09/19 06:15:02;;;;;;;6.45;3.63;;;;;;;7.23;100.00;94995.53;5079838;28;20055;-69
2022/09/19 06:17:29;;;;;;;3.80;2.70;;;;;;;7.11;100.00;94997.94;5099886;27;20054;-69
2022/09/19 06:20:14;;;;;;;3.85;3.10;;;;;;;7.22;100.00;94983.56;5081694;28;20032;-69
2022/09/19 06:23:11;;;;;;;3.88;3.35;;;;;;;7.24;100.00;94997.13;5082205;28;20618;-70
2022/09/19 06:25:39;;;;;;;4.25;3.00;;;;;;;7.31;100.00;94992.72;5100106;28;20099;-76
2022/09/19 06:28:11;;;;;;;4.38;3.28;;;;;;;7.39;100.00;94984.69;5088569;28;20107;-77
2022/09/19 06:30:49;;;;;;;6.90;3.90;;;;;;;7.52;100.00;94998.59;5087307;28;20035;-76
2022/09/19 06:33:34;;;;;;;4.20;3.67;;;;;;;7.69;100.00;94994.53;5068155;28;20143;-76
2022/09/19 06:36:09;;;;;;;5.93;3.95;;;;;;;7.55;100.00;94969.69;5079868;28;20127;-80
2022/09/19 06:38:40;;;;;;;5.65;4.68;;;;;;;7.77;100.00;94991.66;5082451;28;20048;-74
2022/09/19 06:41:34;;;;;;;5.53;4.22;;;;;;;7.96;100.00;94999.53;5078715;28;20048;-81
2022/09/19 06:44:14;;;;;;;4.93;3.70;;;;;;;8.12;100.00;94999.03;5102089;28;20027;-77
2022/09/19 06:47:05;;;;;;;4.72;3.95;;;;;;;8.17;100.00;94978.41;5063217;28;20575;-74
2022/09/19 06:49:46;;;;;;;7.22;4.30;;;;;;;8.37;100.00;94985.25;5082844;28;20054;-75
2022/09/19 06:52:46;;;;;;;6.93;3.90;;;;;;;8.52;100.00;94996.13;5073579;28;20079;-67
2022/09/19 06:55:13;;;;;;;5.47;4.10;;;;;;;8.51;100.00;94986.75;5100161;28;20139;-74
2022/09/19 06:57:56;;;;;;;7.95;4.15;;;;;;;8.71;100.00;95001.34;5087975;28;20043;-74
2022/09/19 07:00:24;;;;;;;8.50;4.28;;;;;;;8.78;100.00;94991.69;5089059;28;20128;-74
2022/09/19 07:03:04;;;;;;;9.85;4.10;;;;;;;8.84;100.00;95001.25;5071154;28;20083;-67
2022/09/19 07:05:35;;;;;;;4.95;3.28;;;;;;;8.99;100.00;94988.69;5073655;28;20129;-66
2022/09/19 07:08:22;;;;;;;6.05;4.10;;;;;;;9.01;100.00;94964.28;5075600;28;20055;-67
2022/09/19 07:10:50;;;;;;;5.90;3.80;;;;;;;9.24;100.00;94984.38;5079634;28;20079;-66
2022/09/19 07:13:18;;;;;;;5.82;4.47;;;;;;;9.29;100.00;94968.94;5077498;28;20054;-67
2022/09/19 07:15:52;;;;;;;5.55;3.90;;;;;;;9.62;100.00;94986.72;5063401;28;20048;-67
2022/09/19 07:18:19;;;;;;;7.32;4.20;;;;;;;9.85;100.00;94985.19;5074387;28;20156;-67
2022/09/19 07:20:50;;;;;;;9.35;4.00;;;;;;;10.08;100.00;94980.06;5078518;28;20040;-67
2022/09/19 07:23:19;;;;;;;4.88;4.20;;;;;;;10.10;100.00;94972.84;5077120;28;20190;-68
2022/09/19 07:26:22;;;;;;;4.07;3.35;;;;;;;10.19;100.00;94975.09;5017855;28;20049;-67
2022/09/19 07:28:49;;;;;;;4.95;2.90;;;;;;;10.31;100.00;94968.13;5089744;27;20075;-67
2022/09/19 07:31:21;;;;;;;3.83;2.58;;;;;;;10.36;100.00;94986.47;5079326;28;20040;-67
2022/09/19 07:33:48;;;;;;;8.98;3.90;;;;;;;10.60;100.00;94976.06;5075994;28;20044;-68
2022/09/19 07:36:15;;;;;;;6.85;3.40;;;;;;;10.52;100.00;94975.38;5081032;28;20185;-68
2022/09/19 07:38:45;;;;;;;7.10;3.45;;;;;;;10.49;100.00;94973.22;5074154;28;20048;-67
2022/09/19 07:41:26;;;;;;;5.32;3.40;;;;;;;10.73;100.00;94975.81;5079485;28;20044;-67
2022/09/19 07:44:11;;;;;;;11.65;3.30;;;;;;;11.02;100.00;94968.06;5076697;28;20127;-67
2022/09/19 07:47:26;;;;;;;5.18;4.10;;;;;;;11.30;100.00;94964.72;5077730;28;21534;-68
2022/09/19 07:49:59;;;;;;;4.35;2.55;;;;;;;11.59;98.97;94968.13;5078026;28;20061;-67
2022/09/19 07:52:36;;;;;;;5.47;3.22;;;;;;;11.70;95.64;94969.09;5063098;28;20609;-67
2022/09/19 07:55:09;;;;;;;4.18;2.63;;;;;;;11.73;95.71;94957.44;5076830;28;20040;-68
2022/09/19 07:57:38;;;;;;;3.22;2.03;;;;;;;11.93;93.37;94963.00;5078900;28;20710;-67
2022/09/19 08:00:06;;;;;;;3.60;2.58;;;;;;;12.13;93.18;94967.00;5078089;28;21356;-67
2022/09/19 08:03:00;;;;;;;2.75;2.25;;;;;;;12.31;94.29;94953.69;5090698;27;20067;-73
2022/09/19 08:05:34;;;;;;;5.43;2.13;;;;;;;12.55;88.60;94966.56;5066972;28;20143;-72
2022/09/19 08:08:01;;;;;;;3.70;2.03;;;;;;;12.58;85.37;94955.66;5085607;28;20734;-72
2022/09/19 08:10:30;;;;;;;2.30;1.85;;;;;;;12.80;84.03;94940.00;5080449;28;20047;-72
2022/09/19 08:13:02;;;;;;;3.67;2.17;;;;;;;13.14;80.27;94956.41;5100961;27;20044;-72
2022/09/19 08:15:31;;;;;;;5.95;1.80;;;;;;;13.09;76.25;94947.66;5061543;28;20075;-72
2022/09/19 08:18:20;;;;;;;2.28;1.67;;;;;;;13.11;74.95;94951.66;5070652;28;20533;-72
2022/09/19 08:20:48;;;;;;;2.53;1.50;;;;;;;13.06;72.39;94950.78;5077645;28;20140;-72
2022/09/19 08:23:18;;;;;;;4.88;1.80;;;;;;;13.10;71.00;94939.59;5063179;28;20036;-72
2022/09/19 08:25:51;;;;;;;2.80;1.85;;;;;;;13.18;70.75;94941.78;5083044;28;20039;-71
2022/09/19 08:28:20;;;;;;;3.30;1.27;;;;;;;13.35;69.28;94940.97;5078895;27;20737;-71
2022/09/19 08:30:49;;;;;;;2.42;1.50;;;;;;;13.53;70.80;94927.53;5084294;27;20048;-72
2022/09/19 08:33:18;;;;;;;3.83;1.60;;;;;;;13.73;70.27;94936.63;5082087;28;20078;-72
2022/09/19 08:35:46;;;;;;;2.55;1.42;;;;;;;13.75;68.94;94924.06;5068653;28;20061;-72
2022/09/19 08:38:26;;;;;;;2.03;1.50;;;;;;;13.78;68.24;94928.81;5082447;27;20065;-72
2022/09/19 08:41:23;;;;;;;2.42;1.30;;;;;;;14.01;68.65;94926.91;5071833;27;20096;-72
2022/09/19 08:44:05;;;;;;;3.55;1.60;;;;;;;14.25;65.99;94925.53;5098335;27;20138;-72
2022/09/19 08:47:01;;;;;;;50.45;27.00;;;;;;;14.28;56.80;94911.94;5084521;28;20752;-72
2022/09/19 08:49:38;;;;;;;2.97;1.95;;;;;;;14.49;56.08;94906.81;5083045;27;20035;-72
2022/09/19 08:52:23;;;;;;;3.25;2.28;;;;;;;14.73;52.28;94902.00;5080693;28;20067;-72
2022/09/19 08:54:53;;;;;;;4.43;1.73;;;;;;;14.97;53.86;94912.88;5084904;27;20047;-72
2022/09/19 08:57:33;;;;;;;3.50;0.75;;;;;;;15.03;51.46;94903.97;5066394;28;20142;-72
2022/09/19 09:00:15;;;;;;;2.05;0.90;;;;;;;15.12;53.01;94908.72;5063997;27;20074;-72
2022/09/19 09:02:57;;;;;;;4.22;0.80;;;;;;;15.43;53.15;94910.41;5083874;28;20047;-72
2022/09/19 09:06:04;;;;;;;1.88;0.70;;;;;;;15.70;50.67;94925.16;5080020;28;20050;-72
2022/09/19 09:08:37;;;;;;;2.28;0.75;;;;;;;15.73;49.90;94922.00;5078495;27;20134;-72
2022/09/19 09:11:53;;;;;;;2.00;0.70;;;;;;;15.88;47.84;94915.97;5069508;28;20051;-72
2022/09/19 09:14:44;;;;;;;2.45;0.65;;;;;;;16.04;48.03;94914.16;5078559;28;20734;-72
2022/09/19 09:17:51;;;;;;;2.28;0.95;;;;;;;16.16;46.75;94911.28;5068698;27;20133;-72
2022/09/19 09:20:39;;;;;;;0.77;0.57;;;;;;;16.25;44.95;94910.47;5080251;27;20051;-71
2022/09/19 09:23:39;;;;;;;2.30;0.85;;;;;;;16.31;45.26;94913.09;5083871;27;20047;-72
2022/09/19 09:26:27;;;;;;;2.65;1.80;;;;;;;16.32;47.08;94904.97;5077911;28;20031;-72
2022/09/19 09:29:12;;;;;;;2.35;0.77;;;;;;;16.49;45.38;94904.66;5079135;28;20051;-71
2022/09/19 09:31:56;;;;;;;1.95;0.30;;;;;;;16.58;38.12;94897.81;5078636;27;20046;-71
2022/09/19 09:34:48;;;;;;;2.77;0.50;;;;;;;16.56;40.20;94896.50;5067165;27;20058;-72
2022/09/19 09:37:23;;;;;;;3.47;1.20;;;;;;;16.61;43.24;94886.75;5078256;27;20043;-72
2022/09/19 09:40:12;;;;;;;4.55;2.00;;;;;;;16.85;43.75;94886.19;5082163;27;20039;-71
2022/09/19 09:42:55;;;;;;;3.13;0.60;;;;;;;16.92;40.70;94865.63;5077933;28;20097;-72
2022/09/19 09:45:36;;;;;;;1.42;0.20;;;;;;;17.27;36.67;94860.47;5080711;28;20036;-72
2022/09/19 09:48:18;;;;;;;3.42;0.57;;;;;;;17.41;38.47;94871.19;5078002;28;20729;-72
2022/09/19 09:51:15;;;;;;;1.38;0.47;;;;;;;17.63;37.73;94868.94;5080584;27;20036;-71
2022/09/19 09:57:34;;;;;;;0.70;0.30;;;;;;;17.72;35.52;94875.22;5080454;27;20042;-72
2022/09/19 10:03:56;;;;;;;1.08;0.65;;;;;;;17.72;34.69;94867.31;5061213;28;20049;-72
2022/09/19 10:07:07;;;;;;;2.22;0.85;;;;;;;17.86;35.78;94856.16;5052470;28;20047;-72
2022/09/19 10:09:38;;;;;;;1.83;0.80;;;;;;;17.97;33.85;94857.66;5058378;28;20055;-72
2022/09/19 10:12:14;;;;;;;0.85;0.32;;;;;;;17.88;33.52;94851.41;5060625;28;20064;-71
2022/09/19 10:15:05;;;;;;;1.75;0.47;;;;;;;18.08;33.66;94859.16;5055294;28;20037;-72
2022/09/19 10:17:47;;;;;;;1.50;0.30;;;;;;;18.39;33.25;94843.03;5059131;28;20068;-72
2022/09/19 10:20:22;;;;;;;1.80;0.47;;;;;;;18.67;33.67;94849.34;5057321;28;20049;-71
2022/09/19 10:22:56;;;;;;;2.03;0.35;;;;;;;18.75;33.25;94834.72;5058595;28;20095;-72
2022/09/19 10:25:26;;;;;;;2.33;0.55;;;;;;;18.89;32.15;94850.69;5037958;28;20029;-72
2022/09/19 10:27:56;;;;;;;1.25;0.68;;;;;;;18.83;31.75;94847.31;5059095;28;20141;-72
2022/09/19 10:30:57;;;;;;;;;;;;;;;18.99;31.45;94852.41;5054683;28;20055;-73
2022/09/19 10:33:44;;;;;;;1.23;0.50;;;;;;;18.94;31.71;94852.47;5080799;28;20078;-72
2022/09/19 10:36:28;;;;;;;1.50;0.50;;;;;;;18.80;31.82;94842.59;5080683;28;20068;-72
2022/09/19 10:38:58;;;;;;;2.67;1.17;;;;;;;19.21;32.84;94834.19;5057169;28;20224;-72
2022/09/19 10:41:32;;;;;;;1.27;0.47;;;;;;;19.39;31.19;94837.09;5055122;28;20041;-72
2022/09/19 10:44:06;;;;;;;1.10;0.30;;;;;;;19.55;31.14;94835.03;5057235;28;20139;-68
2022/09/19 10:46:41;;;;;;;0.70;0.30;;;;;;;19.75;31.54;94807.53;5053903;28;20079;-75
2022/09/19 10:49:47;;;;;;;1.40;0.35;;;;;;;20.22;31.21;94805.66;5057046;28;20056;-76
2022/09/19 10:52:30;;;;;;;0.90;0.32;;;;;;;20.66;30.20;94809.66;5055987;28;21323;-75
2022/09/19 10:55:22;;;;;;;3.15;0.40;;;;;;;20.80;30.56;94810.41;5042912;28;20036;-74
2022/09/19 10:58:12;;;;;;;3.95;0.43;;;;;;;20.84;29.24;94809.84;5059092;28;20052;-77
2022/09/19 11:00:58;;;;;;;1.60;0.38;;;;;;;20.52;29.46;94803.53;5059058;28;20673;-75
2022/09/19 11:03:32;;;;;;;0.77;0.50;;;;;;;20.23;29.12;94809.88;5081362;28;20611;-73
2022/09/19 11:06:06;;;;;;;1.92;0.40;;;;;;;20.46;29.76;94799.44;5078773;28;20058;-75
2022/09/19 11:08:47;;;;;;;3.38;0.88;;;;;;;20.54;29.61;94801.38;5080605;28;20044;-76
2022/09/19 11:11:40;;;;;;;1.73;0.68;;;;;;;21.09;30.38;94790.75;5081661;28;20062;-76
2022/09/19 11:14:22;;;;;;;0.90;0.47;;;;;;;21.69;28.88;94787.03;5070850;28;20622;-75
2022/09/19 11:17:08;;;;;;;3.67;0.80;;;;;;;21.80;28.87;94787.56;5077320;28;20139;-76
2022/09/19 11:19:56;;;;;;;3.30;0.45;;;;;;;21.55;28.29;94773.88;5079132;28;20127;-75
2022/09/19 11:22:45;;;;;;;1.42;0.65;;;;;;;21.71;28.43;94773.47;5078497;28;20705;-75
2022/09/19 11:25:44;;;;;;;1.77;0.60;;;;;;;21.77;29.34;94773.06;5078088;28;20044;-76
2022/09/19 11:28:21;;;;;;;1.48;0.55;;;;;;;21.81;28.97;94762.63;5076924;28;20073;-75
2022/09/19 11:31:27;;;;;;;4.00;0.90;;;;;;;21.81;30.42;94762.63;5075872;28;20044;-75
2022/09/19 11:34:39;;;;;;;5.95;0.98;;;;;;;22.25;28.71;94760.94;5070047;28;20134;-75
2022/09/19 11:37:41;;;;;;;1.42;0.52;;;;;;;22.15;28.91;94735.50;5078271;28;20040;-76
2022/09/19 11:40:22;;;;;;;1.35;0.75;;;;;;;22.35;29.28;94759.16;5072741;28;20131;-76
2022/09/19 11:43:23;;;;;;;3.50;1.00;;;;;;;22.10;28.97;94748.13;5078537;28;20482;-76
2022/09/19 11:46:30;;;;;;;2.42;0.57;;;;;;;21.84;28.19;94756.72;5053732;28;20044;-75
2022/09/19 11:49:18;;;;;;;8.68;1.10;;;;;;;22.75;27.52;94746.63;5075505;28;20548;-78
2022/09/19 11:51:51;;;;;;;2.42;0.88;;;;;;;23.15;28.29;94759.03;5077154;28;20234;-78
2022/09/19 11:54:44;;;;;;;3.15;1.10;;;;;;;23.08;27.96;94754.97;5096841;27;20051;-78
2022/09/19 11:57:37;;;;;;;3.75;1.00;;;;;;;23.12;26.64;94756.97;5078913;28;20055;-74
2022/09/19 12:00:11;;;;;;;2.15;0.82;;;;;;;23.43;26.39;94756.84;5061748;28;20044;-76
2022/09/19 12:03:19;;;;;;;7.22;1.33;;;;;;;23.56;26.67;94752.44;5069598;28;20078;-77
2022/09/19 12:06:24;;;;;;;3.85;1.13;;;;;;;24.17;26.78;94745.09;5065909;28;20060;-77
2022/09/19 12:09:17;;;;;;;7.05;1.02;;;;;;;24.31;25.82;94733.47;5065859;28;20059;-76
2022/09/19 12:12:16;;;;;;;1.73;0.80;;;;;;;23.91;26.14;94725.78;5050684;28;20495;-77
2022/09/19 12:15:22;;;;;;;5.57;1.00;;;;;;;24.13;25.45;94733.56;5080881;28;20052;-75
2022/09/19 12:18:06;;;;;;;2.17;1.08;;;;;;;24.67;23.21;94745.50;5082131;28;20044;-76
2022/09/19 12:20:45;;;;;;;1.83;0.77;;;;;;;24.08;23.50;94736.38;5082166;28;20049;-73
2022/09/19 12:27:12;;;;;;;7.15;0.93;;;;;;;24.20;23.26;94717.88;5077100;28;20155;-76
2022/09/19 12:30:02;;;;;;;2.20;0.70;;;;;;;24.35;23.02;94713.09;5062534;28;20045;-75
2022/09/19 12:32:47;;;;;;;1.95;0.82;;;;;;;24.63;23.77;94707.34;5073059;28;20075;-74
2022/09/19 12:35:20;;;;;;;3.13;0.90;;;;;;;25.43;23.02;94720.53;5064881;28;20070;-74
2022/09/19 12:38:02;;;;;;;3.60;0.98;;;;;;;25.15;21.99;94701.63;5077806;28;20049;-74
2022/09/19 12:40:47;;;;;;;2.65;0.93;;;;;;;25.75;21.24;94723.53;5082463;28;20040;-75
2022/09/19 12:43:23;;;;;;;6.22;1.02;;;;;;;25.11;22.26;94716.72;5079203;28;20040;-75
2022/09/19 12:46:05;;;;;;;1.90;0.77;;;;;;;25.58;21.59;94719.13;5082741;28;20329;-75